createdAt,value
2019-05-30T00:00:40.656Z,16.26
2019-05-30T00:01:45.486Z,16.16
2019-05-30T00:02:49.819Z,16.16
2019-05-30T00:03:55.958Z,16.11
2019-05-30T00:05:00.462Z,16.17
2019-05-30T00:06:05.789Z,16.21
2019-05-30T00:07:11.155Z,16.23
2019-05-30T00:08:16.217Z,16.26
2019-05-30T00:09:20.594Z,16.24
2019-05-30T00:10:25.388Z,16.30
2019-05-30T00:11:29.589Z,16.32
2019-05-30T00:12:34.351Z,16.36
2019-05-30T00:13:38.520Z,16.32
2019-05-30T00:14:43.278Z,16.35
2019-05-30T00:15:47.544Z,16.32
2019-05-30T00:16:52.318Z,16.24
2019-05-30T00:17:58.630Z,16.25
2019-05-30T00:19:05.030Z,16.33
2019-05-30T00:20:10.294Z,16.41
2019-05-30T00:21:15.337Z,16.48
2019-05-30T00:22:19.511Z,16.45
2019-05-30T00:23:24.362Z,16.40
2019-05-30T00:24:28.606Z,16.43
2019-05-30T00:25:33.522Z,16.45
2019-05-30T00:26:37.792Z,16.41
2019-05-30T00:27:42.643Z,16.45
2019-05-30T00:28:47.182Z,16.43
2019-05-30T00:29:52.004Z,16.43
2019-05-30T00:30:56.403Z,16.42
2019-05-30T00:32:01.597Z,16.40
2019-05-30T00:33:07.010Z,16.34
2019-05-30T00:34:12.077Z,16.36
2019-05-30T00:35:16.224Z,16.41
2019-05-30T00:36:21.342Z,16.50
2019-05-30T00:37:25.560Z,16.47
2019-05-30T00:38:30.383Z,16.43
2019-05-30T00:39:34.694Z,16.46
2019-05-30T00:40:39.533Z,16.44
2019-05-30T00:41:43.840Z,16.40
2019-05-30T00:42:48.736Z,16.37
2019-05-30T00:43:52.914Z,16.32
2019-05-30T00:44:57.955Z,16.27
2019-05-30T00:46:02.191Z,16.22
2019-05-30T00:47:06.982Z,16.28
2019-05-30T00:48:11.499Z,16.30
2019-05-30T00:49:16.610Z,16.34
2019-05-30T00:50:20.816Z,16.37
2019-05-30T00:51:26.517Z,16.45
2019-05-30T00:52:30.729Z,16.50
2019-05-30T00:53:35.647Z,16.47
2019-05-30T00:54:39.856Z,16.48
2019-05-30T00:55:44.785Z,16.55
2019-05-30T00:56:49.040Z,16.59
2019-05-30T00:57:53.964Z,16.66
2019-05-30T00:58:58.668Z,16.69
2019-05-30T01:00:05.014Z,16.73
2019-05-30T01:01:09.345Z,16.75
2019-05-30T01:02:14.122Z,16.75
2019-05-30T01:03:18.289Z,16.81
2019-05-30T01:04:23.480Z,16.78
2019-05-30T01:05:27.728Z,16.80
2019-05-30T01:06:32.493Z,16.76
2019-05-30T01:07:36.862Z,16.82
2019-05-30T01:08:41.992Z,16.86
2019-05-30T01:09:46.157Z,16.74
2019-05-30T01:10:52.002Z,16.62
2019-05-30T01:11:56.983Z,16.63
2019-05-30T01:13:01.680Z,16.59
2019-05-30T01:14:05.850Z,16.52
2019-05-30T01:15:11.601Z,16.53
2019-05-30T01:16:15.755Z,16.58
2019-05-30T01:17:20.735Z,16.61
2019-05-30T01:18:24.933Z,16.65
2019-05-30T01:19:29.761Z,16.68
2019-05-30T01:20:34.141Z,16.66
2019-05-30T01:21:38.963Z,16.71
2019-05-30T01:22:43.176Z,16.74
2019-05-30T01:23:47.945Z,16.76
2019-05-30T01:24:52.246Z,16.81
2019-05-30T01:25:59.228Z,16.83
2019-05-30T01:27:05.555Z,16.83
2019-05-30T01:28:11.944Z,16.85
2019-05-30T01:29:16.114Z,16.86
2019-05-30T01:30:20.889Z,16.89
2019-05-30T01:31:25.041Z,16.89
2019-05-30T01:32:30.398Z,16.89
2019-05-30T01:33:34.834Z,16.89
2019-05-30T01:34:39.588Z,16.89
2019-05-30T01:35:43.764Z,16.90
2019-05-30T01:36:48.675Z,16.92
2019-05-30T01:37:52.804Z,16.89
2019-05-30T01:38:57.765Z,16.83
2019-05-30T01:40:01.973Z,16.79
2019-05-30T01:41:08.097Z,16.81
2019-05-30T01:42:12.303Z,16.79
2019-05-30T01:43:17.075Z,16.76
2019-05-30T01:44:21.560Z,16.78
2019-05-30T01:45:26.317Z,16.74
2019-05-30T01:46:31.593Z,16.72
2019-05-30T01:47:36.441Z,16.66
2019-05-30T01:48:40.613Z,16.65
2019-05-30T01:49:45.533Z,16.64
2019-05-30T01:50:49.824Z,16.65
2019-05-30T01:51:54.719Z,16.63
2019-05-30T01:52:58.885Z,16.62
2019-05-30T01:54:04.577Z,16.62
2019-05-30T01:55:09.296Z,16.62
2019-05-30T01:56:14.952Z,16.63
2019-05-30T01:57:19.453Z,16.62
2019-05-30T01:58:24.298Z,16.61
2019-05-30T01:59:28.471Z,16.59
2019-05-30T02:00:39.337Z,16.56
2019-05-30T02:01:43.579Z,16.54
2019-05-30T02:02:48.632Z,16.54
2019-05-30T02:03:52.810Z,16.53
2019-05-30T02:04:58.781Z,16.49
2019-05-30T02:06:03.453Z,16.48
2019-05-30T02:07:09.141Z,16.46
2019-05-30T02:08:14.468Z,16.29
2019-05-30T02:09:19.293Z,16.25
2019-05-30T02:10:23.531Z,16.20
2019-05-30T02:11:28.490Z,16.19
2019-05-30T02:12:32.708Z,16.19
2019-05-30T02:13:37.585Z,16.20
2019-05-30T02:14:41.755Z,16.20
2019-05-30T02:15:46.513Z,16.17
2019-05-30T02:16:51.029Z,16.18
2019-05-30T02:17:55.784Z,16.15
2019-05-30T02:19:00.109Z,16.17
2019-05-30T02:20:06.043Z,16.18
2019-05-30T02:21:10.224Z,16.18
2019-05-30T02:22:15.051Z,16.14
2019-05-30T02:23:19.256Z,16.14
2019-05-30T02:24:24.386Z,16.15
2019-05-30T02:25:29.624Z,16.13
2019-05-30T02:26:34.482Z,16.10
2019-05-30T02:27:38.745Z,16.12
2019-05-30T02:28:43.501Z,16.13
2019-05-30T02:29:47.716Z,16.11
2019-05-30T02:30:52.490Z,16.12
2019-05-30T02:31:56.670Z,16.12
2019-05-30T02:33:02.944Z,16.12
2019-05-30T02:34:08.020Z,16.10
2019-05-30T02:35:13.740Z,16.09
2019-05-30T02:36:17.917Z,16.05
2019-05-30T02:37:22.688Z,16.05
2019-05-30T02:38:27.701Z,16.05
2019-05-30T02:39:32.453Z,16.06
2019-05-30T02:40:36.622Z,16.05
2019-05-30T02:41:41.431Z,16.05
2019-05-30T02:42:45.625Z,16.05
2019-05-30T02:43:50.381Z,15.99
2019-05-30T02:44:54.555Z,15.90
2019-05-30T02:46:00.842Z,15.87
2019-05-30T02:47:07.411Z,15.84
2019-05-30T02:48:12.621Z,15.82
2019-05-30T02:49:16.913Z,15.85
2019-05-30T02:50:21.707Z,15.83
2019-05-30T02:51:25.861Z,15.77
2019-05-30T02:52:30.615Z,15.77
2019-05-30T02:53:36.853Z,15.75
2019-05-30T02:54:41.612Z,15.75
2019-05-30T02:55:46.864Z,15.76
2019-05-30T02:56:51.618Z,15.75
2019-05-30T02:57:55.789Z,15.75
2019-05-30T02:59:01.472Z,15.73
2019-05-30T03:00:13.771Z,15.72
2019-05-30T03:01:15.101Z,15.71
2019-05-30T03:02:19.343Z,15.69
2019-05-30T03:03:24.097Z,15.68
2019-05-30T03:04:28.506Z,15.67
2019-05-30T03:05:33.248Z,15.66
2019-05-30T03:06:38.560Z,15.63
2019-05-30T03:07:43.319Z,15.60
2019-05-30T03:08:47.488Z,15.58
2019-05-30T03:09:52.345Z,15.57
2019-05-30T03:10:56.619Z,15.55
2019-05-30T03:12:03.990Z,15.48
2019-05-30T03:13:10.599Z,15.45
2019-05-30T03:14:19.057Z,15.40
2019-05-30T03:15:20.750Z,15.38
2019-05-30T03:16:25.506Z,15.39
2019-05-30T03:17:29.683Z,15.32
2019-05-30T03:18:34.796Z,15.35
2019-05-30T03:19:38.907Z,15.35
2019-05-30T03:20:44.415Z,15.37
2019-05-30T03:21:49.683Z,15.37
2019-05-30T03:22:55.508Z,15.36
2019-05-30T03:23:59.724Z,15.37
2019-05-30T03:25:07.445Z,15.36
2019-05-30T03:26:13.699Z,15.34
2019-05-30T03:27:17.714Z,15.32
2019-05-30T03:28:22.434Z,15.26
2019-05-30T03:29:27.494Z,15.25
2019-05-30T03:30:31.668Z,15.25
2019-05-30T03:31:37.500Z,15.23
2019-05-30T03:33:05.627Z,15.24
2019-05-30T03:33:48.282Z,15.24
2019-05-30T03:34:52.667Z,15.26
2019-05-30T03:35:58.121Z,15.27
2019-05-30T03:37:08.478Z,15.28
2019-05-30T03:38:12.282Z,15.29
2019-05-30T03:39:15.540Z,15.28
2019-05-30T03:40:23.096Z,15.30
2019-05-30T03:41:26.898Z,15.30
2019-05-30T03:42:31.667Z,15.30
2019-05-30T03:43:36.248Z,15.29
2019-05-30T03:44:41.067Z,15.30
2019-05-30T03:45:45.356Z,15.28
2019-05-30T03:46:54.591Z,15.28
2019-05-30T03:48:00.846Z,15.26
2019-05-30T03:49:08.677Z,15.25
2019-05-30T03:50:17.015Z,15.24
2019-05-30T03:51:20.504Z,15.23
2019-05-30T03:52:24.752Z,15.22
2019-05-30T03:53:29.561Z,15.20
2019-05-30T03:54:33.913Z,15.18
2019-05-30T03:55:38.822Z,15.17
2019-05-30T03:56:46.470Z,15.18
2019-05-30T03:57:57.505Z,15.18
2019-05-30T03:59:05.807Z,15.18
2019-05-30T04:00:22.955Z,15.18
2019-05-30T04:01:33.528Z,15.17
2019-05-30T04:02:57.566Z,15.15
2019-05-30T04:04:06.491Z,15.15
2019-05-30T04:05:15.915Z,15.14
2019-05-30T04:06:25.767Z,15.14
2019-05-30T04:07:30.514Z,15.15
2019-05-30T04:08:34.751Z,15.13
2019-05-30T04:09:39.713Z,15.14
2019-05-30T04:10:43.949Z,15.13
2019-05-30T04:12:03.332Z,15.13
2019-05-30T04:13:15.293Z,15.12
2019-05-30T04:14:21.210Z,15.15
2019-05-30T04:15:35.996Z,15.14
2019-05-30T04:16:40.821Z,15.13
2019-05-30T04:17:45.021Z,15.14
2019-05-30T04:18:49.774Z,15.11
2019-05-30T04:19:54.012Z,15.13
2019-05-30T04:20:58.774Z,15.13
2019-05-30T04:22:02.960Z,15.15
2019-05-30T04:23:08.501Z,15.15
2019-05-30T04:24:14.547Z,15.14
2019-05-30T04:25:20.058Z,15.15
2019-05-30T04:26:24.279Z,15.16
2019-05-30T04:27:29.351Z,15.15
2019-05-30T04:28:33.548Z,15.14
2019-05-30T04:29:38.300Z,15.07
2019-05-30T04:30:42.618Z,14.92
2019-05-30T04:31:48.571Z,14.74
2019-05-30T04:32:52.773Z,14.71
2019-05-30T04:33:58.672Z,14.77
2019-05-30T04:35:02.845Z,14.82
2019-05-30T04:36:08.404Z,14.82
2019-05-30T04:37:12.769Z,14.85
2019-05-30T04:38:19.249Z,14.86
2019-05-30T04:39:23.399Z,14.79
2019-05-30T04:40:28.196Z,14.69
2019-05-30T04:41:32.442Z,14.75
2019-05-30T04:42:37.442Z,14.79
2019-05-30T04:43:41.616Z,14.79
2019-05-30T04:44:46.409Z,14.75
2019-05-30T04:45:50.654Z,14.81
2019-05-30T04:46:56.561Z,14.85
2019-05-30T04:48:00.729Z,14.74
2019-05-30T04:49:06.031Z,14.67
2019-05-30T04:50:11.758Z,14.61
2019-05-30T04:51:19.014Z,14.56
2019-05-30T04:52:24.994Z,14.57
2019-05-30T04:53:29.375Z,14.58
2019-05-30T04:54:33.607Z,14.62
2019-05-30T04:55:38.400Z,14.65
2019-05-30T04:56:42.721Z,14.53
2019-05-30T04:57:47.509Z,14.61
2019-05-30T04:58:51.927Z,14.65
2019-05-30T04:59:56.888Z,14.72
2019-05-30T05:01:01.321Z,14.72
2019-05-30T05:02:06.110Z,14.76
2019-05-30T05:03:11.330Z,14.65
2019-05-30T05:04:17.707Z,14.59
2019-05-30T05:05:26.743Z,14.61
2019-05-30T05:06:29.898Z,14.57
2019-05-30T05:07:34.542Z,14.61
2019-05-30T05:08:39.473Z,14.64
2019-05-30T05:09:43.661Z,14.51
2019-05-30T05:10:48.471Z,14.44
2019-05-30T05:11:52.785Z,14.42
2019-05-30T05:12:57.800Z,14.46
2019-05-30T05:14:02.800Z,14.53
2019-05-30T05:15:08.314Z,14.59
2019-05-30T05:16:23.718Z,14.61
2019-05-30T05:17:19.078Z,14.68
2019-05-30T05:18:23.969Z,14.66
2019-05-30T05:19:28.726Z,14.60
2019-05-30T05:20:36.027Z,14.62
2019-05-30T05:21:39.420Z,14.60
2019-05-30T05:22:43.593Z,14.52
2019-05-30T05:23:48.425Z,14.39
2019-05-30T05:24:52.640Z,14.37
2019-05-30T05:26:01.233Z,14.41
2019-05-30T05:27:04.217Z,14.32
2019-05-30T05:28:08.972Z,14.39
2019-05-30T05:29:13.984Z,14.56
2019-05-30T05:30:20.214Z,14.67
2019-05-30T05:31:24.490Z,14.76
2019-05-30T05:32:29.194Z,14.83
2019-05-30T05:33:33.405Z,14.90
2019-05-30T05:34:38.295Z,14.97
2019-05-30T05:35:42.780Z,15.05
2019-05-30T05:36:47.533Z,15.09
2019-05-30T05:37:51.772Z,15.09
2019-05-30T05:38:56.532Z,15.15
2019-05-30T05:40:01.728Z,15.09
2019-05-30T05:41:08.262Z,15.08
2019-05-30T05:42:12.553Z,15.10
2019-05-30T05:43:18.675Z,15.18
2019-05-30T05:44:22.965Z,15.19
2019-05-30T05:45:28.766Z,15.14
2019-05-30T05:46:33.078Z,15.15
2019-05-30T05:47:37.831Z,15.17
2019-05-30T05:48:42.179Z,15.17
2019-05-30T05:49:46.945Z,15.16
2019-05-30T05:50:51.327Z,15.21
2019-05-30T05:51:56.129Z,15.28
2019-05-30T05:53:00.488Z,15.18
2019-05-30T05:54:06.354Z,15.24
2019-05-30T05:55:10.526Z,15.31
2019-05-30T05:56:15.284Z,15.34
2019-05-30T05:57:20.802Z,15.38
2019-05-30T05:58:26.495Z,15.46
2019-05-30T05:59:30.846Z,15.52
2019-05-30T06:00:35.694Z,15.57
2019-05-30T06:01:39.861Z,15.63
2019-05-30T06:02:44.711Z,15.69
2019-05-30T06:03:48.925Z,15.73
2019-05-30T06:04:53.681Z,15.77
2019-05-30T06:05:57.847Z,15.81
2019-05-30T06:07:03.664Z,15.87
2019-05-30T06:08:07.951Z,15.91
2019-05-30T06:09:12.756Z,15.96
2019-05-30T06:10:17.533Z,15.97
2019-05-30T06:11:22.705Z,16.04
2019-05-30T06:12:27.931Z,16.08
2019-05-30T06:13:32.933Z,16.06
2019-05-30T06:14:37.111Z,16.12
2019-05-30T06:15:41.881Z,16.14
2019-05-30T06:16:46.055Z,16.20
2019-05-30T06:17:50.811Z,16.25
2019-05-30T06:18:55.107Z,16.23
2019-05-30T06:19:59.860Z,16.24
2019-05-30T06:21:04.895Z,16.28
2019-05-30T06:22:09.648Z,16.30
2019-05-30T06:23:14.104Z,16.36
2019-05-30T06:24:20.087Z,16.38
2019-05-30T06:25:26.938Z,16.40
2019-05-30T06:26:30.699Z,16.41
2019-05-30T06:27:35.125Z,16.44
2019-05-30T06:28:39.893Z,16.47
2019-05-30T06:29:44.152Z,16.47
2019-05-30T06:30:48.901Z,16.43
2019-05-30T06:31:53.147Z,16.44
2019-05-30T06:32:57.892Z,16.37
2019-05-30T06:34:02.075Z,16.37
2019-05-30T06:35:08.108Z,16.43
2019-05-30T06:36:13.452Z,16.49
2019-05-30T06:37:19.228Z,16.45
2019-05-30T06:38:23.485Z,16.53
2019-05-30T06:39:29.571Z,16.53
2019-05-30T06:40:34.002Z,16.59
2019-05-30T06:41:38.759Z,16.63
2019-05-30T06:42:43.000Z,16.59
2019-05-30T06:43:47.765Z,16.60
2019-05-30T06:44:51.928Z,16.64
2019-05-30T06:45:56.797Z,16.65
2019-05-30T06:47:00.970Z,16.70
2019-05-30T06:48:05.792Z,16.69
2019-05-30T06:49:09.961Z,16.65
2019-05-30T06:50:14.723Z,16.74
2019-05-30T06:51:19.218Z,16.64
2019-05-30T06:52:24.946Z,16.66
2019-05-30T06:53:29.480Z,16.71
2019-05-30T06:54:34.282Z,16.74
2019-05-30T06:55:38.456Z,16.80
2019-05-30T06:56:44.792Z,16.81
2019-05-30T06:57:49.115Z,16.85
2019-05-30T06:58:53.854Z,16.89
2019-05-30T06:59:58.080Z,16.93
2019-05-30T07:01:02.838Z,16.98
2019-05-30T07:02:07.226Z,16.98
2019-05-30T07:03:12.037Z,17.04
2019-05-30T07:04:16.727Z,17.05
2019-05-30T07:05:23.414Z,17.09
2019-05-30T07:06:29.365Z,17.10
2019-05-30T07:07:34.578Z,17.14
2019-05-30T07:08:38.864Z,17.20
2019-05-30T07:09:43.694Z,17.25
2019-05-30T07:10:47.866Z,17.24
2019-05-30T07:11:52.619Z,17.28
2019-05-30T07:12:56.941Z,17.30
2019-05-30T07:14:01.699Z,17.29
2019-05-30T07:15:09.238Z,17.27
2019-05-30T07:16:13.993Z,17.24
2019-05-30T07:17:18.200Z,17.33
2019-05-30T07:18:23.473Z,17.31
2019-05-30T07:19:29.553Z,17.24
2019-05-30T07:20:34.424Z,17.27
2019-05-30T07:21:38.592Z,17.35
2019-05-30T07:22:43.350Z,17.42
2019-05-30T07:23:47.775Z,17.48
2019-05-30T07:24:52.533Z,17.54
2019-05-30T07:25:56.771Z,17.56
2019-05-30T07:27:01.613Z,17.60
2019-05-30T07:28:05.798Z,17.62
2019-05-30T07:29:10.649Z,17.67
2019-05-30T07:30:14.804Z,17.74
2019-05-30T07:31:19.670Z,17.81
2019-05-30T07:32:24.162Z,17.83
2019-05-30T07:33:30.129Z,17.83
2019-05-30T07:34:35.437Z,17.89
2019-05-30T07:35:40.188Z,17.94
2019-05-30T07:36:44.360Z,18.00
2019-05-30T07:37:49.153Z,18.06
2019-05-30T07:38:53.363Z,18.11
2019-05-30T07:39:58.208Z,18.16
2019-05-30T07:41:02.384Z,18.24
2019-05-30T07:42:08.489Z,18.27
2019-05-30T07:43:12.657Z,18.32
2019-05-30T07:44:17.445Z,18.34
2019-05-30T07:45:22.511Z,18.31
2019-05-30T07:46:27.269Z,18.30
2019-05-30T07:47:32.161Z,18.34
2019-05-30T07:48:37.076Z,18.37
2019-05-30T07:49:41.369Z,18.39
2019-05-30T07:50:46.416Z,18.40
2019-05-30T07:51:50.584Z,18.36
2019-05-30T07:52:55.352Z,18.40
2019-05-30T07:53:59.523Z,18.44
2019-05-30T07:55:07.078Z,18.54
2019-05-30T07:56:11.339Z,18.61
2019-05-30T07:57:16.101Z,18.72
2019-05-30T07:58:20.302Z,18.83
2019-05-30T07:59:26.244Z,18.88
2019-05-30T08:00:31.407Z,18.89
2019-05-30T08:01:36.305Z,18.88
2019-05-30T08:02:40.479Z,18.83
2019-05-30T08:03:45.242Z,18.86
2019-05-30T08:04:49.446Z,18.92
2019-05-30T08:05:54.224Z,19.00
2019-05-30T08:06:58.504Z,19.05
2019-05-30T08:08:03.377Z,19.06
2019-05-30T08:09:07.549Z,19.13
2019-05-30T08:10:12.313Z,19.16
2019-05-30T08:11:16.495Z,19.18
2019-05-30T08:12:21.296Z,19.20
2019-05-30T08:13:25.464Z,19.20
2019-05-30T08:14:31.091Z,19.29
2019-05-30T08:15:42.386Z,19.23
2019-05-30T08:16:41.978Z,19.20
2019-05-30T08:17:46.412Z,19.24
2019-05-30T08:18:51.426Z,19.17
2019-05-30T08:19:55.609Z,19.23
2019-05-30T08:21:00.425Z,19.29
2019-05-30T08:22:04.720Z,19.34
2019-05-30T08:23:10.122Z,19.36
2019-05-30T08:24:14.431Z,19.38
2019-05-30T08:25:19.193Z,19.43
2019-05-30T08:26:23.379Z,19.49
2019-05-30T08:27:28.144Z,19.50
2019-05-30T08:28:32.607Z,19.46
2019-05-30T08:29:38.528Z,19.43
2019-05-30T08:30:42.805Z,19.47
2019-05-30T08:31:47.584Z,19.55
2019-05-30T08:32:51.758Z,19.57
2019-05-30T08:33:56.773Z,19.57
2019-05-30T08:35:00.969Z,19.63
2019-05-30T08:36:06.771Z,19.61
2019-05-30T08:37:10.944Z,19.62
2019-05-30T08:38:15.704Z,19.67
2019-05-30T08:39:19.961Z,19.76
2019-05-30T08:40:24.838Z,19.81
2019-05-30T08:41:29.194Z,19.82
2019-05-30T08:42:35.392Z,19.83
2019-05-30T08:43:39.802Z,19.88
2019-05-30T08:44:44.561Z,19.92
2019-05-30T08:45:48.733Z,19.97
2019-05-30T08:46:53.496Z,19.99
2019-05-30T08:47:57.713Z,20.06
2019-05-30T08:49:02.476Z,20.10
2019-05-30T08:50:10.984Z,20.14
2019-05-30T08:51:15.737Z,20.18
2019-05-30T08:52:19.980Z,20.29
2019-05-30T08:53:24.903Z,20.40
2019-05-30T08:54:30.185Z,20.44
2019-05-30T08:55:36.256Z,20.52
2019-05-30T08:56:40.748Z,20.59
2019-05-30T08:57:45.496Z,20.64
2019-05-30T08:58:49.958Z,20.69
2019-05-30T08:59:54.766Z,20.73
2019-05-30T09:00:59.011Z,20.79
2019-05-30T09:02:03.837Z,20.81
2019-05-30T09:03:08.124Z,20.82
2019-05-30T09:04:13.650Z,20.89
2019-05-30T09:05:17.886Z,20.93
2019-05-30T09:06:22.684Z,20.97
2019-05-30T09:07:31.349Z,21.00
2019-05-30T09:08:35.866Z,20.97
2019-05-30T09:09:42.277Z,21.00
2019-05-30T09:10:47.074Z,20.97
2019-05-30T09:11:52.295Z,20.95
2019-05-30T09:12:57.789Z,20.93
2019-05-30T09:14:01.956Z,21.06
2019-05-30T09:15:13.145Z,21.09
2019-05-30T09:16:17.312Z,21.20
2019-05-30T09:17:22.138Z,21.30
2019-05-30T09:18:26.364Z,21.34
2019-05-30T09:19:31.191Z,21.42
2019-05-30T09:20:37.940Z,21.57
2019-05-30T09:21:43.212Z,21.69
2019-05-30T09:22:47.493Z,21.71
2019-05-30T09:23:52.459Z,21.77
2019-05-30T09:24:56.753Z,21.78
2019-05-30T09:26:01.741Z,21.84
2019-05-30T09:27:05.979Z,21.88
2019-05-30T09:28:10.740Z,21.98
2019-05-30T09:29:14.947Z,21.91
2019-05-30T09:30:19.811Z,21.92
2019-05-30T09:31:24.200Z,21.89
2019-05-30T09:32:28.962Z,21.83
2019-05-30T09:33:33.299Z,21.76
2019-05-30T09:34:38.533Z,21.86
2019-05-30T09:35:44.939Z,21.95
2019-05-30T09:36:50.699Z,22.02
2019-05-30T09:37:54.942Z,22.11
2019-05-30T09:38:59.983Z,22.24
2019-05-30T09:40:07.548Z,22.29
2019-05-30T09:41:13.416Z,22.31
2019-05-30T09:42:17.772Z,22.26
2019-05-30T09:43:22.602Z,22.23
2019-05-30T09:44:26.911Z,22.26
2019-05-30T09:45:31.664Z,22.30
2019-05-30T09:46:36.001Z,22.28
2019-05-30T09:47:41.919Z,22.36
2019-05-30T09:48:46.850Z,22.45
2019-05-30T09:49:51.696Z,22.51
2019-05-30T09:50:55.864Z,22.54
2019-05-30T09:52:00.614Z,22.54
2019-05-30T09:53:05.009Z,22.57
2019-05-30T09:54:09.720Z,22.59
2019-05-30T09:55:14.858Z,22.62
2019-05-30T09:56:20.688Z,22.65
2019-05-30T09:57:24.863Z,22.61
2019-05-30T09:58:29.917Z,22.60
2019-05-30T09:59:34.160Z,22.63
2019-05-30T10:00:38.970Z,22.58
2019-05-30T10:01:44.337Z,22.60
2019-05-30T10:02:50.325Z,22.65
2019-05-30T10:03:55.804Z,22.65
2019-05-30T10:05:00.545Z,22.68
2019-05-30T10:06:05.046Z,22.73
2019-05-30T10:07:09.800Z,22.79
2019-05-30T10:08:14.057Z,22.78
2019-05-30T10:09:18.893Z,22.81
2019-05-30T10:10:23.130Z,22.87
2019-05-30T10:11:27.887Z,22.92
2019-05-30T10:12:32.073Z,22.95
2019-05-30T10:13:36.881Z,22.97
2019-05-30T10:14:41.306Z,22.99
2019-05-30T10:15:46.995Z,22.94
2019-05-30T10:16:54.765Z,22.95
2019-05-30T10:17:58.014Z,22.96
2019-05-30T10:19:02.316Z,22.92
2019-05-30T10:20:08.577Z,22.95
2019-05-30T10:21:14.190Z,22.92
2019-05-30T10:22:19.048Z,22.92
2019-05-30T10:23:23.335Z,22.92
2019-05-30T10:24:28.159Z,22.89
2019-05-30T10:25:32.368Z,22.85
2019-05-30T10:26:37.120Z,22.79
2019-05-30T10:27:41.328Z,22.78
2019-05-30T10:28:47.725Z,22.72
2019-05-30T10:29:53.263Z,22.71
2019-05-30T10:30:59.437Z,22.71
2019-05-30T10:32:04.488Z,22.71
2019-05-30T10:33:09.300Z,22.80
2019-05-30T10:34:13.473Z,22.87
2019-05-30T10:35:19.438Z,22.95
2019-05-30T10:36:23.604Z,23.01
2019-05-30T10:37:28.361Z,23.06
2019-05-30T10:38:32.561Z,23.13
2019-05-30T10:39:37.508Z,23.14
2019-05-30T10:40:41.823Z,23.21
2019-05-30T10:41:47.571Z,23.25
2019-05-30T10:42:54.927Z,23.25
2019-05-30T10:43:59.736Z,23.22
2019-05-30T10:45:07.561Z,23.21
2019-05-30T10:46:12.394Z,23.11
2019-05-30T10:47:16.566Z,23.15
2019-05-30T10:48:21.396Z,23.18
2019-05-30T10:49:34.825Z,23.19
2019-05-30T10:50:33.024Z,23.28
2019-05-30T10:51:37.249Z,23.34
2019-05-30T10:52:42.091Z,23.38
2019-05-30T10:53:47.413Z,23.44
2019-05-30T10:54:53.519Z,23.52
2019-05-30T10:55:57.656Z,23.43
2019-05-30T10:57:02.556Z,23.50
2019-05-30T10:58:06.724Z,23.54
2019-05-30T10:59:11.537Z,23.60
2019-05-30T11:00:18.412Z,23.67
2019-05-30T11:01:23.409Z,23.75
2019-05-30T11:02:27.698Z,23.88
2019-05-30T11:03:32.450Z,23.97
2019-05-30T11:04:36.694Z,24.03
2019-05-30T11:05:41.743Z,24.12
2019-05-30T11:07:09.667Z,24.17
2019-05-30T11:08:07.117Z,24.24
2019-05-30T11:09:11.325Z,24.33
2019-05-30T11:10:37.198Z,24.41
2019-05-30T11:11:41.392Z,24.44
2019-05-30T11:12:46.642Z,24.52
2019-05-30T11:13:53.281Z,24.60
2019-05-30T11:14:59.072Z,24.62
2019-05-30T11:16:04.284Z,24.68
2019-05-30T11:17:09.040Z,24.67
2019-05-30T11:18:13.280Z,24.72
2019-05-30T11:19:18.127Z,24.74
2019-05-30T11:20:22.299Z,24.82
2019-05-30T11:21:27.270Z,24.83
2019-05-30T11:22:31.746Z,24.90
2019-05-30T11:23:36.486Z,24.93
2019-05-30T11:24:40.768Z,25.00
2019-05-30T11:25:45.530Z,24.98
2019-05-30T11:26:50.959Z,25.01
2019-05-30T11:27:56.895Z,25.01
2019-05-30T11:29:01.089Z,25.01
2019-05-30T11:30:08.822Z,24.99
2019-05-30T11:31:13.256Z,25.05
2019-05-30T11:32:18.109Z,24.95
2019-05-30T11:33:22.275Z,24.98
2019-05-30T11:34:27.095Z,25.03
2019-05-30T11:35:32.553Z,25.11
2019-05-30T11:36:38.411Z,25.13
2019-05-30T11:37:42.654Z,25.20
2019-05-30T11:38:47.422Z,25.27
2019-05-30T11:39:51.665Z,25.29
2019-05-30T11:40:57.583Z,25.31
2019-05-30T11:42:02.005Z,25.32
2019-05-30T11:43:06.989Z,25.35
2019-05-30T11:44:11.495Z,25.39
2019-05-30T11:45:16.256Z,25.43
2019-05-30T11:46:21.095Z,25.43
2019-05-30T11:47:25.902Z,25.45
2019-05-30T11:48:30.022Z,25.42
2019-05-30T11:49:34.778Z,25.48
2019-05-30T11:50:38.956Z,25.43
2019-05-30T11:51:43.740Z,25.48
2019-05-30T11:52:47.957Z,25.49
2019-05-30T11:53:53.720Z,25.52
2019-05-30T11:54:58.150Z,25.54
2019-05-30T11:56:02.949Z,25.54
2019-05-30T11:57:07.333Z,25.48
2019-05-30T11:58:12.231Z,25.52
2019-05-30T11:59:16.473Z,25.55
2019-05-30T12:00:21.393Z,25.61
2019-05-30T12:01:25.696Z,25.65
2019-05-30T12:02:30.433Z,25.55
2019-05-30T12:03:34.604Z,25.56
2019-05-30T12:04:39.361Z,25.59
2019-05-30T12:05:43.905Z,25.60
2019-05-30T12:06:48.745Z,25.62
2019-05-30T12:07:52.991Z,25.45
2019-05-30T12:08:58.869Z,25.45
2019-05-30T12:10:04.141Z,25.49
2019-05-30T12:11:09.000Z,25.51
2019-05-30T12:12:13.164Z,25.56
2019-05-30T12:13:18.037Z,25.59
2019-05-30T12:14:22.511Z,25.51
2019-05-30T12:15:27.640Z,25.51
2019-05-30T12:16:32.083Z,25.48
2019-05-30T12:17:37.023Z,25.47
2019-05-30T12:18:41.190Z,25.37
2019-05-30T12:19:45.941Z,25.27
2019-05-30T12:20:51.598Z,25.29
2019-05-30T12:21:57.480Z,25.26
2019-05-30T12:23:02.273Z,25.18
2019-05-30T12:24:07.069Z,25.10
2019-05-30T12:25:11.244Z,25.09
2019-05-30T12:26:16.000Z,25.02
2019-05-30T12:27:20.346Z,25.00
2019-05-30T12:28:25.157Z,24.91
2019-05-30T12:29:29.458Z,24.85
2019-05-30T12:30:34.276Z,24.87
2019-05-30T12:31:38.477Z,24.90
2019-05-30T12:32:43.416Z,24.97
2019-05-30T12:33:47.596Z,25.03
2019-05-30T12:34:52.391Z,24.94
2019-05-30T12:35:56.707Z,24.97
2019-05-30T12:37:02.691Z,24.97
2019-05-30T12:38:07.221Z,24.97
2019-05-30T12:39:12.068Z,25.00
2019-05-30T12:40:16.244Z,25.05
2019-05-30T12:41:21.033Z,25.04
2019-05-30T12:42:25.274Z,25.03
2019-05-30T12:43:30.284Z,25.01
2019-05-30T12:44:34.595Z,25.04
2019-05-30T12:45:39.483Z,24.99
2019-05-30T12:46:43.662Z,25.00
2019-05-30T12:47:48.481Z,24.95
2019-05-30T12:48:53.267Z,24.92
2019-05-30T12:49:59.287Z,24.90
2019-05-30T12:51:03.605Z,24.88
2019-05-30T12:52:09.541Z,24.84
2019-05-30T12:53:13.721Z,24.79
2019-05-30T12:54:18.808Z,24.78
2019-05-30T12:55:23.952Z,24.73
2019-05-30T12:56:28.705Z,24.57
2019-05-30T12:57:33.077Z,24.55
2019-05-30T12:58:37.840Z,24.56
2019-05-30T12:59:42.283Z,24.52
2019-05-30T13:00:47.024Z,24.56
2019-05-30T13:01:52.724Z,24.57
2019-05-30T13:02:58.769Z,24.60
2019-05-30T13:04:03.416Z,24.63
2019-05-30T13:05:11.188Z,24.63
2019-05-30T13:06:15.604Z,24.54
2019-05-30T13:07:20.422Z,24.55
2019-05-30T13:08:24.636Z,24.52
2019-05-30T13:09:29.404Z,24.55
2019-05-30T13:10:33.816Z,24.58
2019-05-30T13:11:39.140Z,24.58
2019-05-30T13:12:43.403Z,24.53
2019-05-30T13:13:48.190Z,24.43
2019-05-30T13:14:52.360Z,24.35
2019-05-30T13:15:58.668Z,24.35
2019-05-30T13:17:04.027Z,24.40
2019-05-30T13:18:09.080Z,24.44
2019-05-30T13:19:14.218Z,24.44
2019-05-30T13:20:18.974Z,24.50
2019-05-30T13:21:23.189Z,24.52
2019-05-30T13:22:27.945Z,24.51
2019-05-30T13:23:32.116Z,24.53
2019-05-30T13:24:37.078Z,24.56
2019-05-30T13:25:41.321Z,24.57
2019-05-30T13:26:46.228Z,24.52
2019-05-30T13:27:50.760Z,24.51
2019-05-30T13:28:55.964Z,24.53
2019-05-30T13:30:00.268Z,24.58
2019-05-30T13:31:07.085Z,24.51
2019-05-30T13:32:11.662Z,24.55
2019-05-30T13:33:16.371Z,24.56
2019-05-30T13:34:20.699Z,24.59
2019-05-30T13:35:25.455Z,24.61
2019-05-30T13:36:29.693Z,24.61
2019-05-30T13:37:34.597Z,24.54
2019-05-30T13:38:38.864Z,24.52
2019-05-30T13:39:43.787Z,24.53
2019-05-30T13:40:48.077Z,24.52
2019-05-30T13:41:52.827Z,24.50
2019-05-30T13:42:59.705Z,24.49
2019-05-30T13:44:07.986Z,24.46
2019-05-30T13:45:11.589Z,24.46
2019-05-30T13:46:16.412Z,24.41
2019-05-30T13:47:20.765Z,24.43
2019-05-30T13:48:25.685Z,24.50
2019-05-30T13:49:29.976Z,24.53
2019-05-30T13:50:34.887Z,24.58
2019-05-30T13:51:39.056Z,24.57
2019-05-30T13:52:43.835Z,24.57
2019-05-30T13:53:48.087Z,24.61
2019-05-30T13:54:52.840Z,24.65
2019-05-30T13:55:57.341Z,24.64
2019-05-30T13:57:03.383Z,24.67
2019-05-30T13:58:07.888Z,24.69